Time;durP1;ratioP1;P1;durP2;ratioP2;P2;SDS_P1;SDS_P2;PMS_P1;PMS_P2;Temp;Humidity;BMP_temperature;BMP_pressure;BME280_temperature;BME280_humidity;BME280_pressure;Samples;Min_cycle;Max_cycle;Signal;HPM_P1;HPM_P2
2022/04/22 00:00:29;;;;;;;3.93;2.20;;;9.80;99.90;;;;;;5050172;28;20206;-91
2022/04/22 00:02:55;;;;;;;3.13;2.57;;;9.90;99.90;;;;;;5051271;28;20223;-90
2022/04/22 00:05:21;;;;;;;3.27;2.23;;;9.90;99.90;;;;;;5038870;28;20237;-91
2022/04/22 00:07:47;;;;;;;2.60;2.40;;;9.90;99.90;;;;;;5053507;28;20217;-91
2022/04/22 00:10:13;;;;;;;1.93;1.80;;;9.90;99.90;;;;;;5025772;28;20561;-91
2022/04/22 00:12:39;;;;;;;2.50;2.13;;;9.80;99.90;;;;;;5045259;28;20286;-89
2022/04/22 00:15:06;;;;;;;2.73;2.00;;;9.90;99.90;;;;;;5031030;28;20914;-89
2022/04/22 00:17:32;;;;;;;5.13;2.57;;;9.80;99.90;;;;;;5036010;28;20679;-89
2022/04/22 00:19:57;;;;;;;1.73;1.57;;;9.90;99.90;;;;;;5026044;28;20214;-89
2022/04/22 00:22:23;;;;;;;4.30;2.83;;;9.80;99.90;;;;;;5018859;28;20226;-90
2022/04/22 00:24:49;;;;;;;3.37;2.87;;;9.80;99.90;;;;;;5036547;28;20202;-91
2022/04/22 00:27:15;;;;;;;4.20;3.13;;;9.70;99.90;;;;;;5024863;28;20758;-89
2022/04/22 00:29:41;;;;;;;5.17;2.53;;;9.60;99.90;;;;;;5035789;28;20313;-90
2022/04/22 00:32:07;;;;;;;2.87;1.90;;;9.50;99.90;;;;;;5036747;28;20305;-88
2022/04/22 00:34:32;;;;;;;9.40;3.00;;;9.50;99.90;;;;;;5051168;28;20628;-89
2022/04/22 00:36:58;;;;;;;3.17;1.83;;;9.40;99.90;;;;;;5029441;28;20195;-92
2022/04/22 00:39:24;;;;;;;5.63;3.93;;;9.40;99.90;;;;;;5033462;28;20186;-90
2022/04/22 00:41:50;;;;;;;2.33;2.13;;;9.40;99.90;;;;;;5035571;28;20239;-90
2022/04/22 00:44:15;;;;;;;3.63;3.23;;;9.40;99.90;;;;;;5036486;28;20312;-91
2022/04/22 00:46:41;;;;;;;4.07;2.33;;;9.40;99.90;;;;;;5036815;28;20213;-91
2022/04/22 00:49:07;;;;;;;2.80;1.70;;;9.40;99.90;;;;;;5034808;28;20214;-90
2022/04/22 00:51:33;;;;;;;3.50;2.47;;;9.40;99.90;;;;;;5025586;28;20189;-89
2022/04/22 00:54:02;;;;;;;2.13;1.87;;;9.40;99.90;;;;;;5040837;28;20292;-92
2022/04/22 00:56:29;;;;;;;5.27;2.83;;;9.30;99.90;;;;;;5031858;28;20273;-89
2022/04/22 00:58:57;;;;;;;3.13;2.13;;;9.30;99.90;;;;;;5035590;28;20221;-91
2022/04/22 01:01:24;;;;;;;1.63;1.53;;;9.30;99.90;;;;;;5034749;28;20237;-88
2022/04/22 01:12:06;;;;;;;2.33;2.13;;;9.20;99.90;;;;;;5033909;28;20219;-90
2022/04/22 01:14:32;;;;;;;2.17;1.83;;;9.20;99.90;;;;;;5036366;28;20316;-92
2022/04/22 01:17:00;;;;;;;4.77;2.87;;;9.30;99.90;;;;;;5038778;28;20226;-88
2022/04/22 01:19:26;;;;;;;4.10;2.10;;;9.40;99.90;;;;;;5055226;28;20390;-90
2022/04/22 01:21:51;;;;;;;3.60;2.80;;;9.40;99.90;;;;;;5039830;28;20199;-90
2022/04/22 01:24:17;;;;;;;9.40;2.77;;;9.30;99.90;;;;;;5029408;28;20233;-89
2022/04/22 01:26:45;;;;;;;2.83;2.03;;;9.20;99.90;;;;;;5029111;28;20455;-90
2022/04/22 01:29:13;;;;;;;11.70;3.53;;;9.20;99.90;;;;;;5033798;28;20221;-89
2022/04/22 01:31:39;;;;;;;4.63;3.03;;;9.10;99.90;;;;;;5031223;28;20292;-91
2022/04/22 01:34:05;;;;;;;2.20;2.07;;;9.10;99.90;;;;;;5039509;28;20285;-91
2022/04/22 01:36:30;;;;;;;2.77;2.00;;;9.10;99.90;;;;;;5037422;28;20659;-91
2022/04/22 01:38:56;;;;;;;6.80;3.07;;;9.10;99.90;;;;;;5035493;28;20225;-88
2022/04/22 01:41:22;;;;;;;4.10;3.33;;;9.20;99.90;;;;;;5038229;28;20484;-89
2022/04/22 01:43:48;;;;;;;6.33;2.00;;;9.40;99.90;;;;;;5026020;28;20230;-91
2022/04/22 01:46:15;;;;;;;3.57;2.17;;;9.50;99.90;;;;;;5053167;28;20230;-89
2022/04/22 01:48:41;;;;;;;4.13;2.87;;;9.60;99.90;;;;;;5035577;28;20222;-92
2022/04/22 01:51:07;;;;;;;3.63;2.00;;;9.60;99.90;;;;;;5036286;28;20746;-90
2022/04/22 01:53:33;;;;;;;2.60;2.37;;;9.60;99.90;;;;;;5034949;28;20218;-90
2022/04/22 01:55:58;;;;;;;4.30;2.47;;;9.60;99.90;;;;;;5052703;28;20305;-88
2022/04/22 01:58:24;;;;;;;5.00;2.40;;;9.60;99.90;;;;;;5037528;28;20834;-88
2022/04/22 02:00:50;;;;;;;3.70;2.60;;;9.60;99.90;;;;;;5036350;28;20665;-91
2022/04/22 02:03:15;;;;;;;5.80;2.87;;;9.60;99.90;;;;;;5033719;28;20678;-89
2022/04/22 02:05:41;;;;;;;5.50;2.43;;;9.60;99.90;;;;;;5031901;28;20539;-88
2022/04/22 02:08:08;;;;;;;2.60;1.70;;;9.60;99.90;;;;;;5030344;28;20230;-91
2022/04/22 02:10:34;;;;;;;2.43;1.63;;;9.60;99.90;;;;;;5038247;28;20225;-88
2022/04/22 02:13:00;;;;;;;2.20;1.87;;;9.60;99.90;;;;;;5036786;28;20190;-88
2022/04/22 02:15:26;;;;;;;3.07;2.63;;;9.50;99.90;;;;;;5055880;28;20183;-88
2022/04/22 02:17:53;;;;;;;4.97;2.13;;;9.60;99.90;;;;;;5025720;28;20292;-89
2022/04/22 02:20:19;;;;;;;2.87;1.83;;;9.50;99.90;;;;;;5034918;28;20250;-92
2022/04/22 02:22:44;;;;;;;2.63;2.40;;;9.50;99.90;;;;;;5048003;28;20671;-88
2022/04/22 02:25:10;;;;;;;4.27;2.23;;;9.40;99.90;;;;;;5053786;28;20516;-89
2022/04/22 02:30:23;;;;;;;14.60;2.83;;;9.30;99.90;;;;;;5036001;28;20214;-90
2022/04/22 02:32:48;;;;;;;7.03;3.23;;;9.30;99.90;;;;;;5034817;28;20234;-88
2022/04/22 02:35:14;;;;;;;3.30;2.67;;;9.30;99.90;;;;;;5032684;28;20282;-90
2022/04/22 02:37:40;;;;;;;5.00;2.77;;;9.20;99.90;;;;;;5033542;28;20214;-89
2022/04/22 02:40:06;;;;;;;5.27;2.17;;;9.20;99.90;;;;;;5032183;28;20696;-89
2022/04/22 02:45:29;;;;;;;4.70;2.57;;;9.10;99.90;;;;;;5050523;28;20214;-88
2022/04/22 02:47:56;;;;;;;3.27;2.67;;;9.00;99.90;;;;;;5034659;28;20249;-88
2022/04/22 02:50:22;;;;;;;3.57;3.00;;;9.00;99.90;;;;;;5035895;28;20214;-88
2022/04/22 02:52:48;;;;;;;4.13;2.57;;;9.00;99.90;;;;;;5026495;28;20509;-88
2022/04/22 02:55:14;;;;;;;2.93;2.30;;;8.90;99.90;;;;;;5040703;28;20314;-89
2022/04/22 02:57:43;;;;;;;3.20;2.50;;;8.90;99.90;;;;;;5033775;28;20277;-91
2022/04/22 03:00:13;;;;;;;3.37;3.07;;;8.90;99.90;;;;;;5039544;28;20213;-93
2022/04/22 03:02:39;;;;;;;1.97;1.70;;;8.90;99.90;;;;;;5049578;28;20238;-92
2022/04/22 03:05:05;;;;;;;1.97;1.73;;;8.90;99.90;;;;;;5036208;28;20550;-91
2022/04/22 03:07:30;;;;;;;4.00;3.70;;;8.80;99.90;;;;;;5035224;28;20539;-93
2022/04/22 03:09:56;;;;;;;2.23;2.03;;;8.80;99.90;;;;;;5036183;28;20438;-89
2022/04/22 03:12:23;;;;;;;2.87;2.00;;;8.80;99.90;;;;;;5033113;28;20195;-90
2022/04/22 03:14:49;;;;;;;3.57;1.83;;;8.80;99.90;;;;;;5033913;28;20268;-91
2022/04/22 03:17:15;;;;;;;4.07;2.40;;;8.90;99.90;;;;;;5025316;28;20227;-89
2022/04/22 03:19:40;;;;;;;4.60;2.17;;;8.90;99.90;;;;;;5033635;28;20220;-89
2022/04/22 03:22:06;;;;;;;4.83;2.10;;;8.80;99.90;;;;;;5049810;28;20190;-88
2022/04/22 03:24:32;;;;;;;1.70;1.60;;;8.80;99.90;;;;;;5054923;28;20229;-90
2022/04/22 03:26:58;;;;;;;5.17;2.57;;;8.80;99.90;;;;;;5052900;28;20218;-90
2022/04/22 03:29:23;;;;;;;2.43;1.77;;;8.80;99.90;;;;;;5051030;28;20210;-91
2022/04/22 03:31:49;;;;;;;9.20;2.03;;;8.80;99.90;;;;;;5042062;28;20223;-93
2022/04/22 03:34:15;;;;;;;8.33;2.53;;;8.80;99.90;;;;;;5033502;28;20666;-91
2022/04/22 03:36:40;;;;;;;1.70;1.43;;;8.70;99.90;;;;;;5033041;28;20198;-92
2022/04/22 03:39:07;;;;;;;4.80;2.70;;;8.70;99.90;;;;;;5052260;28;20222;-90
2022/04/22 03:41:33;;;;;;;1.40;1.30;;;8.60;99.90;;;;;;5034752;28;20678;-89
2022/04/22 03:43:59;;;;;;;2.10;2.00;;;8.60;99.90;;;;;;5048316;28;20237;-92
2022/04/22 03:46:25;;;;;;;2.50;1.57;;;8.60;99.90;;;;;;5034844;28;20218;-89
2022/04/22 03:48:50;;;;;;;2.70;2.17;;;8.50;99.90;;;;;;5033355;28;20191;-89
2022/04/22 03:51:16;;;;;;;2.50;1.70;;;8.50;99.90;;;;;;5052855;28;20218;-90
2022/04/22 03:53:42;;;;;;;1.47;1.37;;;8.50;99.90;;;;;;5032060;28;20231;-90
2022/04/22 03:58:52;;;;;;;9.37;2.27;;;8.40;99.90;;;;;;5047950;28;20234;-91
2022/04/22 04:01:17;;;;;;;3.17;2.87;;;8.30;99.90;;;;;;5033727;28;20283;-89
2022/04/22 04:03:43;;;;;;;2.27;2.07;;;8.30;99.90;;;;;;5053325;28;20589;-88
2022/04/22 04:06:09;;;;;;;2.10;1.60;;;8.30;99.90;;;;;;5052074;28;20233;-89
2022/04/22 04:08:34;;;;;;;2.03;1.53;;;8.30;99.90;;;;;;5038128;28;20538;-90
2022/04/22 04:16:25;;;;;;;24.47;3.07;;;8.30;99.90;;;;;;5035428;28;20225;-91
2022/04/22 04:18:51;;;;;;;1.00;1.00;;;8.20;99.90;;;;;;5027759;28;20190;-92
2022/04/22 04:24:00;;;;;;;1.17;1.07;;;8.20;99.90;;;;;;5034988;28;20229;-92
2022/04/22 04:26:27;;;;;;;1.97;1.80;;;8.30;99.90;;;;;;5031626;28;20709;-92
2022/04/22 04:28:53;;;;;;;3.20;2.17;;;8.30;99.90;;;;;;5033008;28;20484;-93
2022/04/22 04:31:20;;;;;;;1.53;1.33;;;8.20;99.90;;;;;;5031593;28;20237;-93
2022/04/22 04:33:46;;;;;;;3.73;2.10;;;8.10;99.90;;;;;;5036325;28;20392;-90
2022/04/22 04:36:13;;;;;;;1.83;1.70;;;8.10;99.90;;;;;;5031882;28;20530;-92
2022/04/22 04:38:41;;;;;;;1.63;1.03;;;8.00;99.90;;;;;;5031206;28;20235;-92
2022/04/22 04:41:08;;;;;;;1.47;1.37;;;8.00;99.90;;;;;;5030939;28;20225;-90
2022/04/22 04:43:34;;;;;;;2.93;0.70;;;8.00;99.90;;;;;;5027840;28;20280;-90
2022/04/22 04:46:00;;;;;;;1.60;1.43;;;8.00;99.90;;;;;;5033476;28;20338;-92
2022/04/22 04:48:26;;;;;;;2.57;1.30;;;8.00;99.90;;;;;;5034271;28;20193;-90
2022/04/22 04:50:52;;;;;;;1.27;1.17;;;8.00;99.90;;;;;;5035760;28;20214;-89
2022/04/22 04:53:20;;;;;;;2.10;1.67;;;8.00;99.90;;;;;;5038042;28;20713;-91
2022/04/22 04:55:46;;;;;;;1.03;0.83;;;8.10;99.90;;;;;;5035661;28;20227;-86
2022/04/22 04:58:12;;;;;;;1.47;1.20;;;8.20;99.90;;;;;;5034730;28;20178;-87
2022/04/22 05:00:38;;;;;;;0.80;0.77;;;8.30;99.90;;;;;;5033439;28;20235;-89
2022/04/22 05:03:04;;;;;;;1.93;1.47;;;8.40;99.90;;;;;;5034292;28;20319;-89
2022/04/22 05:05:30;;;;;;;1.10;1.10;;;8.50;99.90;;;;;;5028972;28;20222;-90
2022/04/22 05:07:59;;;;;;;3.27;0.87;;;8.50;99.90;;;;;;5028552;28;20214;-87
2022/04/22 05:10:28;;;;;;;2.40;1.70;;;8.50;99.90;;;;;;5033299;28;20221;-87
2022/04/22 05:12:54;;;;;;;0.87;0.83;;;8.60;99.90;;;;;;5033174;28;20244;-87
2022/04/22 05:15:24;;;;;;;2.10;2.00;;;8.60;99.90;;;;;;5028401;28;20255;-87
2022/04/22 05:17:51;;;;;;;4.43;1.63;;;8.80;99.90;;;;;;5030701;28;20225;-88
2022/04/22 05:20:18;;;;;;;6.13;1.53;;;9.30;99.90;;;;;;5030150;28;20272;-89
2022/04/22 05:22:45;;;;;;;0.83;0.60;;;9.90;99.90;;;;;;5032281;28;20241;-89
2022/04/22 05:25:13;;;;;;;2.07;1.17;;;10.50;99.90;;;;;;5029453;28;20186;-90
2022/04/22 05:27:39;;;;;;;2.30;1.47;;;11.20;99.90;;;;;;5033024;28;20194;-91
2022/04/22 05:32:52;;;;;;;5.20;1.37;;;11.60;99.90;;;;;;5033050;28;20218;-89
2022/04/22 05:35:20;;;;;;;2.70;1.27;;;11.60;99.90;;;;;;5049373;28;20283;-87
2022/04/22 05:37:51;;;;;;;1.17;1.07;;;11.90;99.90;;;;;;5035493;28;20206;-88
2022/04/22 05:40:39;;;;;;;1.30;1.20;;;12.10;99.90;;;;;;5022852;28;20222;-89
2022/04/22 05:43:06;;;;;;;4.07;2.20;;;12.70;99.90;;;;;;5033483;28;20326;-85
2022/04/22 05:45:32;;;;;;;1.20;1.10;;;13.60;99.90;;;;;;5021569;28;20197;-85
2022/04/22 05:47:58;;;;;;;1.53;1.40;;;14.10;99.90;;;;;;5030430;28;20210;-84
2022/04/22 05:50:26;;;;;;;2.07;1.87;;;14.40;99.90;;;;;;5046517;28;20224;-89
2022/04/22 05:52:52;;;;;;;1.00;0.90;;;14.50;99.90;;;;;;5031061;28;20274;-87
2022/04/22 05:55:23;;;;;;;2.07;1.10;;;14.10;99.90;;;;;;5029651;28;20488;-86
2022/04/22 05:57:50;;;;;;;1.90;0.90;;;13.80;99.90;;;;;;5036084;28;20182;-86
2022/04/22 06:00:18;;;;;;;2.30;2.10;;;13.90;99.90;;;;;;5047177;28;20572;-93
2022/04/22 06:02:45;;;;;;;1.50;1.10;;;13.50;99.90;;;;;;5036785;28;20230;-88
2022/04/22 06:05:13;;;;;;;4.93;1.10;;;13.70;99.90;;;;;;5034330;28;20222;-89
2022/04/22 06:07:40;;;;;;;2.57;1.00;;;13.90;99.90;;;;;;5033199;28;20667;-90
2022/04/22 06:12:51;;;;;;;1.60;1.43;;;14.70;99.90;;;;;;5055318;28;20178;-91
2022/04/22 06:15:17;;;;;;;1.40;1.13;;;14.40;99.90;;;;;;5049467;28;20269;-88
2022/04/22 06:17:43;;;;;;;6.43;1.33;;;14.30;99.90;;;;;;5050491;28;20222;-92
2022/04/22 06:20:09;;;;;;;1.40;1.27;;;14.60;99.90;;;;;;5035861;28;20224;-87
2022/04/22 06:22:35;;;;;;;1.90;1.13;;;14.10;99.90;;;;;;5037971;28;20214;-88
2022/04/22 06:25:01;;;;;;;2.40;1.23;;;14.00;99.90;;;;;;5037772;28;20205;-91
2022/04/22 06:27:28;;;;;;;0.93;0.93;;;14.20;99.90;;;;;;5039591;28;20621;-88
2022/04/22 06:29:55;;;;;;;0.70;0.70;;;14.40;99.90;;;;;;5037487;28;20227;-86
2022/04/22 06:32:27;;;;;;;1.27;1.17;;;14.50;99.90;;;;;;5030219;28;20315;-87
2022/04/22 06:34:53;;;;;;;1.77;1.03;;;14.40;99.90;;;;;;5035990;28;20226;-91
2022/04/22 06:37:19;;;;;;;2.20;1.10;;;15.00;99.90;;;;;;5036178;28;20706;-85
2022/04/22 06:47:59;;;;;;;0.90;0.70;;;15.20;99.90;;;;;;5044509;28;20276;-89
2022/04/22 06:50:25;;;;;;;3.27;0.90;;;15.30;99.90;;;;;;5051487;28;20317;-85
2022/04/22 06:52:51;;;;;;;1.73;1.10;;;14.80;99.90;;;;;;5035283;28;20297;-85
2022/04/22 06:55:17;;;;;;;1.33;0.83;;;14.60;99.90;;;;;;5034209;28;20297;-87
2022/04/22 06:57:48;;;;;;;1.90;0.97;;;15.00;99.90;;;;;;5038793;28;20681;-88
2022/04/22 07:00:15;;;;;;;5.93;2.37;;;14.50;99.90;;;;;;5029667;28;20218;-89
2022/04/22 07:02:41;;;;;;;2.77;1.00;;;14.40;99.90;;;;;;5023326;28;20234;-87
2022/04/22 07:05:09;;;;;;;1.80;1.23;;;14.10;99.90;;;;;;5042759;28;20578;-91
2022/04/22 07:07:35;;;;;;;1.70;1.40;;;14.20;99.90;;;;;;5026033;28;20222;-86
2022/04/22 07:10:01;;;;;;;1.10;1.00;;;14.30;99.90;;;;;;5047610;28;20328;-86
2022/04/22 07:12:28;;;;;;;7.40;1.17;;;14.30;99.90;;;;;;5032688;28;20257;-86
2022/04/22 07:15:03;;;;;;;6.20;1.37;;;13.90;99.90;;;;;;5043047;28;20221;-87
2022/04/22 07:17:36;;;;;;;2.30;1.70;;;14.00;99.90;;;;;;5046152;28;20404;-87
2022/04/22 07:20:09;;;;;;;1.67;1.57;;;14.20;99.90;;;;;;5025773;28;20226;-87
2022/04/22 07:22:39;;;;;;;2.10;0.83;;;14.90;99.90;;;;;;5035299;28;20690;-86
2022/04/22 07:25:09;;;;;;;1.20;1.10;;;14.40;99.90;;;;;;5031805;28;20202;-86
2022/04/22 07:27:38;;;;;;;8.33;1.30;;;14.50;99.90;;;;;;5051307;28;20201;-91
2022/04/22 07:30:07;;;;;;;2.37;0.97;;;14.30;99.90;;;;;;5039911;28;20726;-90
2022/04/22 07:32:37;;;;;;;4.07;1.10;;;14.30;99.90;;;;;;5035114;28;20227;-87
2022/04/22 07:35:13;;;;;;;2.53;1.23;;;14.40;99.90;;;;;;5031217;28;20214;-85
2022/04/22 07:37:39;;;;;;;1.30;1.10;;;14.10;99.90;;;;;;5031307;28;20229;-87
2022/04/22 07:40:06;;;;;;;3.07;1.07;;;14.40;99.90;;;;;;5032164;28;20250;-93
2022/04/22 07:42:33;;;;;;;2.70;1.60;;;14.50;99.90;;;;;;5031613;28;20245;-85
2022/04/22 07:47:47;;;;;;;8.10;0.87;;;14.00;99.90;;;;;;5037222;28;20250;-83
2022/04/22 07:50:14;;;;;;;1.47;0.90;;;14.00;99.90;;;;;;5032740;28;20750;-86
2022/04/22 07:52:44;;;;;;;3.47;1.23;;;14.00;99.90;;;;;;5033787;28;20705;-87
2022/04/22 07:55:11;;;;;;;1.23;1.17;;;14.10;99.90;;;;;;5036476;28;20186;-84
2022/04/22 07:57:37;;;;;;;2.33;1.10;;;14.10;99.90;;;;;;5031063;28;20664;-86
2022/04/22 08:00:04;;;;;;;1.77;1.50;;;14.20;99.90;;;;;;5034980;28;20304;-86
2022/04/22 08:02:30;;;;;;;0.73;0.73;;;14.20;99.90;;;;;;5034100;28;20221;-84
2022/04/22 08:04:55;;;;;;;4.20;1.00;;;14.40;99.90;;;;;;5032945;28;20222;-85
2022/04/22 08:07:21;;;;;;;2.90;1.17;;;13.80;99.90;;;;;;5023242;28;20215;-87
2022/04/22 08:09:47;;;;;;;1.20;0.80;;;13.80;99.90;;;;;;5032648;28;20210;-86
2022/04/22 08:12:18;;;;;;;4.80;1.30;;;14.40;99.90;;;;;;5028489;28;20237;-93
2022/04/22 08:14:44;;;;;;;4.20;1.30;;;14.60;99.90;;;;;;5030805;28;20667;-87
2022/04/22 08:17:10;;;;;;;3.80;0.97;;;14.70;99.90;;;;;;5031722;28;20226;-87
2022/04/22 08:19:36;;;;;;;3.50;1.10;;;14.50;99.90;;;;;;5051126;28;20214;-90
2022/04/22 08:22:02;;;;;;;1.07;0.87;;;14.40;99.90;;;;;;5034109;28;20677;-85
2022/04/22 08:24:27;;;;;;;1.10;1.10;;;14.50;99.90;;;;;;5033108;28;20262;-86
2022/04/22 08:26:54;;;;;;;1.07;1.00;;;14.10;99.90;;;;;;5034756;28;20995;-85
2022/04/22 08:29:20;;;;;;;1.00;0.90;;;14.10;99.90;;;;;;5032411;28;20729;-84
2022/04/22 08:31:45;;;;;;;5.97;0.70;;;13.90;99.90;;;;;;5031661;28;20352;-84
2022/04/22 08:34:11;;;;;;;1.13;1.03;;;14.10;99.90;;;;;;5030884;28;20554;-91
2022/04/22 08:36:37;;;;;;;1.87;1.60;;;14.20;99.90;;;;;;5048440;28;20261;-87
2022/04/22 08:39:05;;;;;;;3.63;1.70;;;14.20;99.90;;;;;;5031505;28;20233;-87
2022/04/22 08:41:35;;;;;;;2.43;1.73;;;14.40;99.90;;;;;;5031906;28;20681;-85
2022/04/22 08:44:01;;;;;;;1.23;1.13;;;14.40;99.90;;;;;;5032442;28;20347;-87
2022/04/22 08:52:00;;;;;;;0.80;0.80;;;14.50;99.90;;;;;;5036023;28;20179;-83
2022/04/22 08:54:27;;;;;;;1.20;1.10;;;14.70;99.90;;;;;;5037728;28;20201;-83
2022/04/22 08:56:54;;;;;;;1.70;1.37;;;14.60;99.90;;;;;;5022566;28;20232;-88
2022/04/22 08:59:20;;;;;;;4.27;1.17;;;14.80;99.90;;;;;;5033942;28;20241;-87
2022/04/22 09:01:46;;;;;;;2.20;1.03;;;14.50;99.90;;;;;;5031732;28;20202;-84
2022/04/22 09:04:12;;;;;;;2.60;1.30;;;14.50;99.90;;;;;;5034998;28;20263;-84
2022/04/22 09:06:37;;;;;;;2.97;1.37;;;14.50;99.90;;;;;;5033243;28;21034;-88
2022/04/22 09:09:04;;;;;;;1.97;1.80;;;14.40;99.90;;;;;;5029873;28;20219;-88
2022/04/22 09:11:30;;;;;;;3.07;1.10;;;14.70;99.90;;;;;;5049119;28;20521;-87
2022/04/22 09:14:00;;;;;;;1.60;1.20;;;14.80;99.90;;;;;;5024140;28;20224;-86
2022/04/22 09:16:27;;;;;;;1.57;1.23;;;14.70;99.90;;;;;;5030277;28;20226;-88
2022/04/22 09:18:59;;;;;;;2.87;1.50;;;14.80;99.90;;;;;;5036862;28;20206;-90
2022/04/22 09:21:25;;;;;;;2.33;1.87;;;15.10;99.90;;;;;;5049620;28;20227;-85
2022/04/22 09:23:53;;;;;;;0.60;0.60;;;15.10;99.90;;;;;;5036435;28;20230;-84
2022/04/22 09:26:23;;;;;;;3.83;1.27;;;15.10;99.90;;;;;;5033865;28;20226;-88
2022/04/22 09:29:00;;;;;;;2.53;1.40;;;14.90;99.90;;;;;;5035337;28;20229;-86
2022/04/22 09:31:27;;;;;;;4.63;1.47;;;15.10;99.90;;;;;;5039223;28;20220;-86
2022/04/22 09:33:54;;;;;;;3.03;2.47;;;15.10;99.90;;;;;;5053247;28;20214;-85
2022/04/22 09:45:03;;;;;;;1.83;0.90;;;14.90;99.90;;;;;;5037062;28;20229;-88
2022/04/22 09:47:33;;;;;;;9.53;2.30;;;15.00;99.90;;;;;;5035085;28;20234;-90
2022/04/22 09:50:10;;;;;;;1.63;1.27;;;15.00;99.90;;;;;;5033276;28;20206;-89
2022/04/22 09:52:38;;;;;;;2.10;1.70;;;14.70;99.90;;;;;;5055183;28;20210;-87
2022/04/22 09:55:07;;;;;;;3.20;1.77;;;14.80;99.90;;;;;;5039487;28;20189;-87
2022/04/22 09:57:52;;;;;;;2.13;1.20;;;14.90;99.90;;;;;;5034747;28;20191;-90
2022/04/22 10:00:19;;;;;;;5.53;1.57;;;15.50;99.90;;;;;;5033243;28;20655;-86
2022/04/22 10:02:51;;;;;;;17.27;1.50;;;15.50;99.90;;;;;;5037298;28;20232;-86
2022/04/22 10:05:23;;;;;;;1.67;1.57;;;15.50;99.90;;;;;;5049293;28;20226;-88
2022/04/22 10:07:52;;;;;;;1.50;1.30;;;15.10;99.90;;;;;;5036589;28;20221;-89
2022/04/22 10:10:27;;;;;;;3.87;0.87;;;14.90;99.90;;;;;;5032475;28;20246;-90
2022/04/22 10:12:56;;;;;;;2.40;1.27;;;14.50;99.90;;;;;;5038411;28;20244;-86
2022/04/22 10:15:27;;;;;;;4.77;1.67;;;14.90;99.90;;;;;;5049384;28;20219;-88
2022/04/22 10:17:53;;;;;;;2.80;1.63;;;14.50;99.90;;;;;;5037244;28;20228;-86
2022/04/22 10:20:25;;;;;;;2.10;1.20;;;14.70;99.90;;;;;;5051934;28;20280;-86
2022/04/22 10:22:51;;;;;;;4.70;1.70;;;15.10;99.90;;;;;;5038893;28;20598;-89
2022/04/22 10:25:18;;;;;;;2.03;1.60;;;15.00;99.90;;;;;;5036453;28;20280;-91
2022/04/22 10:27:44;;;;;;;3.53;1.80;;;15.20;99.90;;;;;;5038636;28;20220;-85
2022/04/22 10:30:11;;;;;;;4.27;1.67;;;15.10;99.90;;;;;;5035652;28;20511;-86
2022/04/22 10:32:43;;;;;;;2.27;1.47;;;15.60;99.90;;;;;;5054563;28;20591;-86
2022/04/22 10:35:11;;;;;;;1.43;1.23;;;15.30;99.90;;;;;;5037623;28;20267;-87
2022/04/22 10:37:41;;;;;;;4.13;2.03;;;15.20;99.90;;;;;;5034011;28;20244;-87
2022/04/22 10:40:28;;;;;;;3.00;1.40;;;15.30;99.90;;;;;;5031544;28;20422;-88
2022/04/22 10:42:58;;;;;;;1.53;1.40;;;15.50;99.90;;;;;;5032550;28;20333;-84
2022/04/22 10:48:21;;;;;;;2.87;0.97;;;14.50;99.90;;;;;;5034412;28;20305;-83
2022/04/22 10:51:13;;;;;;;3.00;1.70;;;14.20;99.90;;;;;;5035421;28;20228;-87
2022/04/22 10:53:49;;;;;;;6.60;1.40;;;14.10;99.90;;;;;;5040826;28;20222;-87
2022/04/22 10:56:27;;;;;;;1.97;1.70;;;14.30;99.90;;;;;;5035420;28;20221;-89
2022/04/22 10:59:20;;;;;;;1.70;1.60;;;14.30;99.90;;;;;;5049585;28;20679;-88
2022/04/22 11:01:47;;;;;;;1.30;1.13;;;14.40;99.90;;;;;;5035116;28;20222;-87
2022/04/22 11:04:31;;;;;;;1.30;1.13;;;14.20;99.90;;;;;;5035344;28;20221;-86
2022/04/22 11:06:57;;;;;;;1.17;1.03;;;14.00;99.90;;;;;;5032741;28;20187;-87
2022/04/22 11:09:31;;;;;;;5.47;1.83;;;13.70;99.90;;;;;;5052393;28;20198;-87
2022/04/22 11:11:58;;;;;;;5.77;1.50;;;13.70;99.90;;;;;;5040728;28;20225;-88
2022/04/22 11:14:26;;;;;;;5.67;1.77;;;14.00;99.90;;;;;;5036777;28;20353;-86
2022/04/22 11:16:54;;;;;;;4.10;2.13;;;13.90;99.90;;;;;;5051255;28;20237;-88
2022/04/22 11:19:19;;;;;;;2.10;1.43;;;13.80;99.90;;;;;;5028313;28;20256;-93
2022/04/22 11:21:52;;;;;;;5.10;2.83;;;13.70;99.90;;;;;;5035925;28;20233;-92
2022/04/22 11:24:34;;;;;;;4.77;1.60;;;13.80;99.90;;;;;;5034050;28;20625;-93
2022/04/22 11:27:08;;;;;;;5.57;2.70;;;13.80;99.90;;;;;;5043005;28;20210;-94
2022/04/22 11:29:34;;;;;;;3.23;1.40;;;13.30;99.90;;;;;;5033137;28;20218;-92
2022/04/22 11:32:19;;;;;;;4.70;1.27;;;13.70;99.90;;;;;;5036153;28;20223;-93
2022/04/22 11:35:20;;;;;;;2.03;1.57;;;13.40;99.90;;;;;;5036110;28;20293;-92
2022/04/22 11:38:00;;;;;;;1.80;1.70;;;13.90;99.90;;;;;;5035783;28;20212;-94
2022/04/22 11:40:26;;;;;;;1.67;1.57;;;13.60;99.90;;;;;;5032786;28;20659;-93
2022/04/22 11:42:54;;;;;;;3.07;1.87;;;13.40;99.90;;;;;;5033968;28;20277;-93
2022/04/22 11:45:20;;;;;;;2.10;1.63;;;13.90;99.90;;;;;;5037702;28;20233;-93
2022/04/22 11:47:46;;;;;;;3.57;1.73;;;13.90;99.90;;;;;;5035175;28;20213;-92
2022/04/22 11:50:20;;;;;;;3.53;2.40;;;13.60;99.90;;;;;;5052994;28;20214;-92
2022/04/22 11:52:56;;;;;;;4.00;1.80;;;13.50;99.90;;;;;;5038637;28;20272;-92
2022/04/22 11:55:22;;;;;;;2.47;1.70;;;13.70;99.90;;;;;;5038996;28;20213;-93
2022/04/22 11:57:48;;;;;;;5.50;3.20;;;13.90;99.90;;;;;;5038243;28;20244;-91
2022/04/22 12:05:52;;;;;;;2.70;2.00;;;13.70;99.90;;;;;;5032592;28;20376;-93
2022/04/22 12:08:19;;;;;;;4.20;1.97;;;13.50;99.90;;;;;;5033654;28;20221;-92
2022/04/22 12:10:46;;;;;;;4.03;1.87;;;13.60;99.90;;;;;;5025982;28;20283;-92
2022/04/22 12:13:16;;;;;;;5.20;2.50;;;13.90;99.90;;;;;;5036974;28;20197;-93
2022/04/22 12:15:48;;;;;;;4.60;2.20;;;13.80;99.90;;;;;;5033920;28;20182;-92
2022/04/22 12:18:35;;;;;;;3.90;2.10;;;13.60;99.90;;;;;;5035728;28;20225;-90
2022/04/22 12:21:03;;;;;;;2.80;2.23;;;13.90;99.90;;;;;;5039375;28;20250;-90
2022/04/22 12:23:37;;;;;;;2.80;1.70;;;13.70;99.90;;;;;;5049802;28;20232;-91
2022/04/22 12:26:03;;;;;;;11.53;2.40;;;13.70;99.90;;;;;;5035861;28;20538;-91
2022/04/22 12:28:29;;;;;;;4.23;2.20;;;13.70;99.90;;;;;;5034468;28;20219;-90
2022/04/22 12:30:55;;;;;;;3.10;1.93;;;13.70;99.90;;;;;;5033165;28;20887;-91
2022/04/22 12:33:25;;;;;;;10.43;3.33;;;13.70;99.90;;;;;;5031066;28;20201;-90
2022/04/22 12:36:07;;;;;;;2.87;2.03;;;13.80;99.90;;;;;;5035915;28;20283;-92
2022/04/22 12:38:35;;;;;;;9.43;2.87;;;13.90;99.90;;;;;;5035197;28;20214;-92
2022/04/22 12:41:01;;;;;;;13.33;2.53;;;14.20;99.90;;;;;;5035337;28;20414;-92
2022/04/22 12:43:34;;;;;;;6.27;1.87;;;14.00;99.90;;;;;;5052409;28;20225;-92
2022/04/22 12:52:19;;;;;;;8.27;2.53;;;13.80;99.90;;;;;;5031872;28;20187;-92
2022/04/22 12:54:47;;;;;;;3.50;2.60;;;13.90;99.90;;;;;;5042795;28;20179;-92
2022/04/22 12:57:25;;;;;;;3.03;2.33;;;13.80;99.90;;;;;;5033849;28;20602;-92
2022/04/22 12:59:55;;;;;;;4.37;1.50;;;13.80;99.90;;;;;;5025743;28;20226;-92
2022/04/22 13:02:35;;;;;;;2.57;1.47;;;13.80;99.90;;;;;;5030256;28;20256;-91
2022/04/22 13:05:03;;;;;;;3.07;2.77;;;13.80;99.90;;;;;;5048809;28;20470;-94
2022/04/22 13:07:42;;;;;;;3.57;2.43;;;14.40;99.90;;;;;;5034188;28;20298;-91
2022/04/22 13:10:12;;;;;;;3.50;1.90;;;14.40;99.90;;;;;;5029592;28;20171;-89
2022/04/22 13:12:41;;;;;;;4.93;2.20;;;14.10;99.90;;;;;;5038801;28;20641;-90
2022/04/22 13:15:09;;;;;;;1.77;1.47;;;14.10;99.90;;;;;;5035087;28;20218;-84
2022/04/22 13:17:43;;;;;;;3.53;2.90;;;14.20;99.90;;;;;;5049594;28;20225;-85
2022/04/22 13:20:10;;;;;;;11.97;3.63;;;14.00;99.90;;;;;;5033292;28;20258;-86
2022/04/22 13:22:36;;;;;;;2.97;2.13;;;14.30;99.90;;;;;;5032504;28;20214;-86
2022/04/22 13:25:03;;;;;;;5.83;2.93;;;14.30;99.90;;;;;;5049947;28;20194;-86
2022/04/22 13:27:29;;;;;;;5.97;2.40;;;14.30;99.90;;;;;;5033135;28;20229;-86
2022/04/22 13:29:55;;;;;;;4.27;2.67;;;14.60;99.90;;;;;;5024836;28;20297;-85
2022/04/22 13:32:21;;;;;;;4.40;2.40;;;14.80;99.90;;;;;;5024365;28;20226;-85
2022/04/22 13:34:46;;;;;;;2.93;2.20;;;14.70;99.90;;;;;;5050056;28;20283;-86
2022/04/22 13:37:12;;;;;;;2.67;2.27;;;14.50;99.90;;;;;;5035694;28;20190;-85
2022/04/22 13:39:38;;;;;;;6.57;3.03;;;14.60;99.90;;;;;;5025306;28;20297;-88
2022/04/22 13:42:04;;;;;;;4.97;3.60;;;14.60;99.90;;;;;;5032233;28;20226;-85
2022/04/22 13:52:45;;;;;;;3.27;2.60;;;14.80;99.90;;;;;;5044563;28;20222;-86
2022/04/22 13:55:12;;;;;;;11.93;3.17;;;14.90;99.90;;;;;;5031727;28;20356;-85
2022/04/22 13:57:38;;;;;;;4.33;3.00;;;15.00;99.90;;;;;;5034371;28;20237;-89
2022/04/22 14:00:05;;;;;;;6.07;2.63;;;14.90;99.90;;;;;;5034911;28;20226;-89
2022/04/22 14:02:31;;;;;;;7.60;2.00;;;15.10;99.90;;;;;;5034953;28;20209;-84
2022/04/22 14:04:57;;;;;;;4.17;2.63;;;14.90;99.90;;;;;;5031278;28;20265;-85
2022/04/22 14:07:23;;;;;;;7.33;2.20;;;14.70;99.90;;;;;;5041243;28;20228;-89
2022/04/22 14:09:49;;;;;;;4.77;2.77;;;14.70;99.90;;;;;;5049725;28;20197;-86
2022/04/22 14:12:15;;;;;;;7.93;2.50;;;14.70;99.90;;;;;;5023937;28;20218;-87